AirNav   Phillips 66 Aviation Fuel
 
 339 users online  

8FD3 Blackwater Airfield
Munson, Florida, USA

GOING TO MUNSON?


FAA INFORMATION EFFECTIVE 01 FEBRUARY 2018

Location

FAA Identifier: 8FD3
Lat/Long: 30-52-39.6660N / 086-51-15.8560W
30-52.661100N / 086-51.264267W
30.8776850 / -86.8544044
(estimated)
Elevation: 200 ft. / 61 m (estimated)
Variation: 01E (1985)
From city: 1 mile NE of MUNSON, FL
Time zone: UTC -6 (UTC -5 during Daylight Saving Time)
Zip code: 32570

Airport Operations

Airport use: Private use. Permission required prior to landing
Activation date: 03/1988
Control tower: no
ARTCC: JACKSONVILLE CENTER
FSS: GAINESVILLE FLIGHT SERVICE STATION
Attendance: CONTINUOUS
Wind indicator: yes
Segmented circle: no

Airport Communications

WX AWOS-3 at 12J (15 nm NW): 119.325 (251-809-2987)
WX ASOS at CEW (18 nm E): 119.275 (850-682-1237)

Nearby radio navigation aids

VOR radial/distance  VOR name  Freq  Var
CEWr286/9.5CRESTVIEW VORTAC115.9003E
NUNr045/(34.8)SAUFLEY VOR108.8001E

 
NDB name  Hdg/Dist  Freq  Var  ID
PICKENS034/31.332602WPKZ .--. -.- --..
JUDD225/35.026402WJUY .--- ..- -.--

Airport Services

Runway Information

Runway 18/36

Dimensions: 4000 x 100 ft. / 1219 x 30 m
Surface: turf
RUNWAY 18  RUNWAY 36
Traffic pattern: leftleft
Displaced threshold: no1500 ft.

Airport Ownership and Management from official FAA records

Ownership: Publicly-owned
Owner: DEPT OF AGRI/DIV OF FORESTRY
3266 CAPITAL CIR S W
TALLAHASSEE, FL 32310
Phone (850) 681-5980
Manager: BRIAN MCKEE
3266 CAPITAL CIR SW
TALLAHASSEE, FL 32310
Phone (850) 681-5980

Airport Operational Statistics

Aircraft based on the field: 1
Single engine airplanes: 1
    

Instrument Procedures

There are no published instrument procedures at 8FD3.

Some nearby airports with instrument procedures:

KNSE - Whiting Field Naval Air Station North (13 nm SW)
KNDZ - Whiting Field Naval Air Station South (14 nm SW)
12J - Brewton Municipal Airport (15 nm NW)
2R4 - Peter Prince Field Airport (16 nm SW)
KCEW - Bob Sikes Airport (18 nm E)
 
Loc | Ops | Rwys | IFR | FBO | Links
Com | Nav | Svcs | Stats | Notes

AirNav Hotels Sweepstakes
 
Area around 8FD3 (Blackwater Airfield)
 
Road maps at: MapQuest Bing Google
 
Aerial photo
WARNING: Photo may not be current or correct
Aerial photo of 8FD3 (Blackwater Airfield)
Photo by Drew Hatch
Photo taken 16-Mar-2013
looking north.

Do you have a better or more recent aerial photo of Blackwater Airfield that you would like to share? If so, please send us your photo.

 
Sectional chart

 
Airport distance calculator
Flying to Blackwater Airfield? Find the distance to fly.

From to 8FD3

Sunrise and sunset
Times for 19-Feb-2018
 Local
(UTC-6)
 Zulu
(UTC)
Morning civil twilight06:0112:01
Sunrise06:2612:26
Sunset17:3723:37
Evening civil twilight18:0200:02

Current date and time
Zulu (UTC)  19-Feb-2018 08:23:43
Local (UTC-6)  19-Feb-2018 02:23:43
 
METAR
KNSE 
13nm SW 
190756Z AUTO 15008KT 10SM OVC007 20/20 A3018 RMK AO2 CIG 004V010 SLP205 T02000200 $
KNDZ 
14nm SW 
190756Z AUTO 17007KT 10SM OVC006 20/20 A3018 RMK AO2 CIG 003V010 SLP205 T02000200 $
2R4 
16nm SW 
SuperAWOS
190755Z AUTO 16005KT 21/20 A3016
KCEW 
19nm E 
190802Z AUTO 16004KT 10SM OVC005 19/18 A3020 RMK AO2 CIG 003V009 T01940183 $
KEGI 
23nm SE 
190802Z AUTO 15005KT 10SM SCT007 BKN012 19/19 A3019 RMK AO2 CIG 006V012 SLP223 $
TAF
KNSE 
13nm SW 
1823/1923 17008KT 9999 FEW025 SCT200 QNH3016INS BECMG 1902/1904 12004KT 8000 BR SCT010 BKN035 QNH3018INS TEMPO 1905/1911 0800 FG OVC002 BECMG 1913/1915 12013KT 9999 NSW SCT020 BKN050 QNH3020INS AUTOMATED SENSOR METWATCH 1823 TIL 1911 T19/1912Z T23/1921Z FN00170
NOTAMs
Click for the latest NOTAMs
NOTAMs are issued by the DoD/FAA and will open in a separate window not controlled by AirNav.

 

 
 

Would you like to see your business listed on this page?

 If your business provides an interesting product or service to pilots, flight crews, aircraft, or users of the Blackwater Airfield, you should consider listing it here.  To start the listing process, click on the button below
 
Add a business
 

Other Pages about Blackwater Airfield

Update a link
 
Copyright © AirNav, LLC. All rights reserved. Privacy Policy  Contact